Time;durP1;ratioP1;P1;durP2;ratioP2;P2;SDS_P1;SDS_P2;PMS_P1;PMS_P2;Temp;Humidity;BMP_temperature;BMP_pressure;BME280_temperature;BME280_humidity;BME280_pressure;Samples;Min_cycle;Max_cycle;Signal;HPM_P1;HPM_P2
2023/12/26 00:01:54;;;;;;;3.58;1.90;;;;;;;8.22;66.07;98323.81;4947638;27;103207;-69
2023/12/26 00:04:23;;;;;;;2.95;1.90;;;;;;;8.28;65.89;98325.81;4946687;27;103175;-69
2023/12/26 00:06:54;;;;;;;3.55;1.92;;;;;;;8.32;65.61;98315.78;4924552;28;102702;-69
2023/12/26 00:09:22;;;;;;;4.43;1.83;;;;;;;8.30;65.89;98312.47;4945748;27;104031;-69
2023/12/26 00:11:50;;;;;;;2.28;1.42;;;;;;;8.35;65.66;98312.81;4947803;27;103319;-69
2023/12/26 00:14:21;;;;;;;5.60;1.83;;;;;;;8.41;65.44;98304.22;4942191;27;103217;-69
2023/12/26 00:16:49;;;;;;;5.90;2.30;;;;;;;8.29;65.89;98310.81;4921545;28;103157;-69
2023/12/26 00:19:18;;;;;;;4.80;2.05;;;;;;;8.36;65.71;98313.63;4948368;28;102630;-70
2023/12/26 00:21:46;;;;;;;3.25;1.80;;;;;;;8.39;65.39;98310.66;4939261;27;104345;-69
2023/12/26 00:24:14;;;;;;;3.13;1.83;;;;;;;8.43;65.88;98309.34;4947294;27;103314;-69
2023/12/26 00:26:42;;;;;;;4.32;1.95;;;;;;;8.40;66.16;98305.22;4944654;27;102638;-69
2023/12/26 00:29:10;;;;;;;2.88;1.70;;;;;;;8.43;65.80;98307.53;4922820;28;104233;-70
2023/12/26 00:31:42;;;;;;;2.90;1.65;;;;;;;8.44;65.96;98308.38;4921796;28;104297;-69
2023/12/26 00:34:10;;;;;;;4.32;2.10;;;;;;;8.38;65.97;98309.81;4927093;27;103191;-69
2023/12/26 00:36:40;;;;;;;5.00;1.90;;;;;;;8.43;66.07;98302.25;4923482;28;103602;-69
2023/12/26 00:39:08;;;;;;;4.18;2.05;;;;;;;8.41;65.86;98303.41;4943666;27;102791;-69
2023/12/26 00:41:36;;;;;;;4.22;1.92;;;;;;;8.41;65.74;98304.22;4944193;27;104094;-69
2023/12/26 00:44:04;;;;;;;2.53;1.70;;;;;;;8.48;66.23;98304.44;4939114;27;103185;-69
2023/12/26 00:46:33;;;;;;;6.22;1.98;;;;;;;8.47;65.69;98308.06;4931993;28;103247;-69
2023/12/26 00:49:01;;;;;;;3.40;1.90;;;;;;;8.43;65.88;98299.59;4925120;28;102768;-69
2023/12/26 00:51:31;;;;;;;2.53;1.58;;;;;;;8.50;65.54;98309.53;4924326;28;104202;-70
2023/12/26 00:54:03;;;;;;;2.45;1.52;;;;;;;8.49;65.76;98305.25;4925206;27;103240;-69
2023/12/26 00:56:31;;;;;;;3.50;1.95;;;;;;;8.49;66.24;98310.53;4924359;28;102651;-70
2023/12/26 00:59:02;;;;;;;3.58;2.13;;;;;;;8.49;65.86;98313.16;4929343;28;102708;-70
2023/12/26 01:01:31;;;;;;;7.00;2.35;;;;;;;8.45;66.13;98310.88;4934796;27;103221;-70
2023/12/26 01:03:59;;;;;;;5.72;2.10;;;;;;;8.47;65.91;98313.34;4925441;28;104327;-70
2023/12/26 01:06:27;;;;;;;2.92;1.67;;;;;;;8.54;65.30;98310.84;4925970;27;102672;-70
2023/12/26 01:08:55;;;;;;;2.63;1.58;;;;;;;8.55;65.50;98320.44;4924694;27;104294;-71
2023/12/26 01:11:25;;;;;;;3.03;1.70;;;;;;;8.47;65.87;98313.34;4942940;28;104114;-69
2023/12/26 01:13:55;;;;;;;4.20;2.00;;;;;;;8.52;65.73;98321.59;4923903;27;103543;-69
2023/12/26 01:16:27;;;;;;;3.00;1.50;;;;;;;8.53;65.83;98325.03;4923819;28;102590;-69
2023/12/26 01:18:56;;;;;;;6.57;1.70;;;;;;;8.56;66.00;98335.28;4929605;27;102863;-70
2023/12/26 01:21:24;;;;;;;2.88;1.58;;;;;;;8.46;66.19;98328.34;4925306;28;104480;-70
2023/12/26 01:23:55;;;;;;;3.47;1.90;;;;;;;8.46;65.79;98338.06;4930394;28;104341;-70
2023/12/26 01:26:25;;;;;;;4.57;1.67;;;;;;;8.50;65.48;98328.03;4947034;27;102848;-69
2023/12/26 01:28:53;;;;;;;3.55;1.75;;;;;;;8.41;66.15;98330.63;4942017;27;104602;-70
2023/12/26 01:31:21;;;;;;;3.40;2.10;;;;;;;8.42;65.47;98334.94;4923874;28;104054;-69
2023/12/26 01:33:51;;;;;;;3.90;1.75;;;;;;;8.41;65.86;98340.34;4923685;28;104099;-69
2023/12/26 01:36:20;;;;;;;2.75;1.80;;;;;;;8.40;65.74;98339.53;4932976;28;102818;-69
2023/12/26 01:38:49;;;;;;;3.10;1.70;;;;;;;8.46;65.97;98343.34;4947690;27;104130;-69
2023/12/26 01:41:17;;;;;;;3.70;1.90;;;;;;;8.43;65.93;98338.38;4929879;27;103129;-70
2023/12/26 01:43:46;;;;;;;3.72;2.00;;;;;;;8.46;65.78;98343.34;4935680;27;104210;-69
2023/12/26 01:46:17;;;;;;;2.88;1.67;;;;;;;8.41;66.13;98345.63;4949739;27;103232;-70
2023/12/26 01:48:48;;;;;;;3.25;1.85;;;;;;;8.46;65.89;98360.03;4925821;27;103270;-70
2023/12/26 01:51:19;;;;;;;3.58;1.80;;;;;;;8.43;65.70;98349.75;4949540;27;103328;-70
2023/12/26 01:53:47;;;;;;;2.88;1.50;;;;;;;8.41;65.98;98356.16;4925885;28;103086;-70
2023/12/26 01:56:16;;;;;;;2.53;1.55;;;;;;;8.41;65.84;98358.81;4933423;27;102766;-70
2023/12/26 01:58:48;;;;;;;2.95;1.60;;;;;;;8.40;65.74;98360.63;4922313;28;103800;-70
2023/12/26 02:01:17;;;;;;;2.53;1.73;;;;;;;8.44;65.62;98367.25;5011033;27;104048;-70
2023/12/26 02:03:46;;;;;;;3.60;2.00;;;;;;;8.48;65.88;98366.97;4947087;27;103177;-69
2023/12/26 02:06:15;;;;;;;3.22;1.80;;;;;;;8.39;65.77;98369.53;4928774;28;103260;-69
2023/12/26 02:08:43;;;;;;;2.58;1.80;;;;;;;8.38;65.87;98373.16;4924761;28;102788;-68
2023/12/26 02:11:11;;;;;;;2.97;1.80;;;;;;;8.34;65.60;98366.56;4926430;27;103427;-70
2023/12/26 02:13:39;;;;;;;2.03;1.40;;;;;;;8.41;65.94;98367.56;4943933;28;103852;-70
2023/12/26 02:16:13;;;;;;;2.33;1.70;;;;;;;8.41;65.65;98364.94;4949410;27;103577;-69
2023/12/26 02:18:44;;;;;;;4.53;1.80;;;;;;;8.42;64.87;98373.66;4943764;27;103670;-69
2023/12/26 02:21:12;;;;;;;4.53;1.85;;;;;;;8.38;65.67;98374.97;4942587;27;103363;-69
2023/12/26 02:23:41;;;;;;;5.15;1.90;;;;;;;8.41;65.08;98374.66;4924699;27;103046;-69
2023/12/26 02:26:11;;;;;;;3.78;1.80;;;;;;;8.46;64.88;98375.88;4940107;28;102570;-69
2023/12/26 02:28:40;;;;;;;3.55;1.75;;;;;;;8.43;65.24;98381.41;4928413;28;102842;-70
2023/12/26 02:31:09;;;;;;;2.72;1.52;;;;;;;8.46;65.54;98380.28;4922889;28;104297;-69
2023/12/26 02:33:38;;;;;;;2.90;1.58;;;;;;;8.48;65.16;98383.63;4924587;28;103501;-69
2023/12/26 02:36:08;;;;;;;2.80;1.52;;;;;;;8.44;65.60;98377.78;4930008;27;102731;-69
2023/12/26 02:38:36;;;;;;;1.98;1.50;;;;;;;8.50;64.78;98378.16;4944244;28;103262;-69
2023/12/26 02:41:07;;;;;;;1.95;1.40;;;;;;;8.49;65.44;98379.16;4924451;27;104957;-69
2023/12/26 02:43:36;;;;;;;5.25;1.70;;;;;;;8.52;65.27;98392.03;4929242;28;104151;-69
2023/12/26 02:46:05;;;;;;;2.15;1.50;;;;;;;8.50;65.16;98388.72;4923165;28;102823;-69
2023/12/26 02:48:36;;;;;;;2.60;1.60;;;;;;;8.52;65.36;98389.41;4942235;27;104221;-70
2023/12/26 02:51:06;;;;;;;1.90;1.42;;;;;;;8.46;65.07;98390.84;4935049;28;104275;-69
2023/12/26 02:53:34;;;;;;;2.78;1.88;;;;;;;8.34;64.84;98390.31;4924184;28;104322;-69
2023/12/26 02:56:03;;;;;;;2.53;1.65;;;;;;;8.35;64.73;98397.25;4926932;27;102923;-70
2023/12/26 02:58:31;;;;;;;5.32;1.95;;;;;;;8.30;65.27;98402.16;4950331;27;102810;-70
2023/12/26 03:01:01;;;;;;;2.33;1.50;;;;;;;8.35;65.30;98396.44;4929387;27;104174;-69
2023/12/26 03:03:29;;;;;;;3.75;1.73;;;;;;;8.30;64.86;98391.63;4938232;28;103606;-70
2023/12/26 03:05:57;;;;;;;2.40;1.50;;;;;;;8.29;64.54;98389.97;4940462;27;102617;-69
2023/12/26 03:08:25;;;;;;;3.58;1.60;;;;;;;8.24;64.85;98385.19;4942066;27;103930;-69
2023/12/26 03:10:56;;;;;;;2.50;1.50;;;;;;;8.22;65.16;98400.34;4941812;27;103228;-69
2023/12/26 03:13:24;;;;;;;1.88;1.30;;;;;;;8.31;64.86;98395.91;5009923;27;104183;-69
2023/12/26 03:15:52;;;;;;;3.65;1.75;;;;;;;8.32;63.92;98394.09;4938083;28;102769;-69
2023/12/26 03:18:22;;;;;;;2.72;1.75;;;;;;;8.32;64.61;98389.66;4943786;27;103147;-69
2023/12/26 03:20:50;;;;;;;2.45;1.63;;;;;;;8.33;64.25;98396.56;4940649;27;103138;-69
2023/12/26 03:23:18;;;;;;;3.03;1.60;;;;;;;8.31;64.37;98388.00;4934347;27;103229;-69
2023/12/26 03:25:46;;;;;;;2.83;1.58;;;;;;;8.35;64.46;98399.88;4942924;27;102621;-69
2023/12/26 03:28:14;;;;;;;2.10;1.40;;;;;;;8.34;64.19;98392.94;4928229;28;102874;-69
2023/12/26 03:30:42;;;;;;;3.55;1.65;;;;;;;8.37;64.11;98391.78;4929749;27;104116;-70
2023/12/26 03:33:10;;;;;;;2.72;1.50;;;;;;;8.39;64.45;98395.13;4943802;27;103261;-69
2023/12/26 03:35:40;;;;;;;3.72;1.83;;;;;;;8.39;64.10;98395.13;5012669;27;102731;-69
2023/12/26 03:38:10;;;;;;;2.03;1.52;;;;;;;8.37;64.14;98397.91;4927398;28;104119;-70
2023/12/26 03:40:39;;;;;;;2.35;1.48;;;;;;;8.32;63.96;98400.22;4946420;27;104523;-69
2023/12/26 03:43:08;;;;;;;2.70;1.52;;;;;;;8.38;64.10;98396.91;4929560;27;103988;-69
2023/12/26 03:45:36;;;;;;;3.10;1.50;;;;;;;8.36;64.10;98404.19;4939572;28;102948;-69
2023/12/26 03:48:07;;;;;;;2.50;1.60;;;;;;;8.42;64.00;98406.19;4922981;28;105281;-69
2023/12/26 03:50:37;;;;;;;2.70;1.58;;;;;;;8.40;64.46;98402.88;4941185;27;103266;-69
2023/12/26 03:53:07;;;;;;;2.80;1.50;;;;;;;8.44;63.78;98401.53;4945810;27;102999;-69
2023/12/26 03:55:35;;;;;;;2.75;1.70;;;;;;;8.45;64.18;98405.03;4930880;28;102637;-69
2023/12/26 03:58:05;;;;;;;3.70;1.75;;;;;;;8.46;63.83;98406.69;4922270;28;104518;-70
2023/12/26 04:00:33;;;;;;;3.47;1.70;;;;;;;8.44;64.28;98406.00;4930246;27;104182;-70
2023/12/26 04:03:04;;;;;;;2.28;1.70;;;;;;;8.41;64.00;98404.53;4932343;28;103202;-70
2023/12/26 04:05:32;;;;;;;2.58;1.63;;;;;;;8.44;63.99;98403.38;4930064;28;102610;-69
2023/12/26 04:08:00;;;;;;;2.42;1.50;;;;;;;8.44;63.73;98404.19;4929423;28;104171;-69
2023/12/26 04:10:30;;;;;;;3.55;1.75;;;;;;;8.44;63.44;98398.09;4928800;27;103750;-69
2023/12/26 04:12:58;;;;;;;2.70;1.50;;;;;;;8.50;63.38;98396.63;4921012;28;106015;-68
2023/12/26 04:15:28;;;;;;;2.45;1.60;;;;;;;8.50;63.63;98399.28;4923629;28;103136;-69
2023/12/26 04:17:58;;;;;;;3.58;1.80;;;;;;;8.48;63.39;98396.00;4941257;27;102973;-69
2023/12/26 04:20:26;;;;;;;2.78;1.63;;;;;;;8.48;62.48;98391.53;4925520;28;103232;-71
2023/12/26 04:22:55;;;;;;;2.80;1.55;;;;;;;8.46;62.96;98402.25;4922852;28;105332;-70
2023/12/26 04:25:23;;;;;;;2.28;1.60;;;;;;;8.50;62.43;98399.28;4944632;27;103384;-70
2023/12/26 04:27:54;;;;;;;3.10;1.60;;;;;;;8.55;62.56;98410.19;4924496;28;102708;-70
2023/12/26 04:30:23;;;;;;;1.98;1.40;;;;;;;8.55;62.29;98407.53;4924159;28;104063;-70
2023/12/26 04:32:51;;;;;;;3.60;1.52;;;;;;;8.55;62.74;98410.19;4921191;28;106427;-70
2023/12/26 04:35:19;;;;;;;3.15;1.70;;;;;;;8.54;62.09;98413.81;4925152;28;103014;-70
2023/12/26 04:37:48;;;;;;;3.55;1.77;;;;;;;8.51;62.71;98403.56;4924557;28;104321;-70
2023/12/26 04:40:16;;;;;;;3.33;1.92;;;;;;;8.50;62.00;98417.75;4939727;27;104227;-68
2023/12/26 04:42:44;;;;;;;2.80;1.70;;;;;;;8.52;62.67;98411.34;4948852;27;104248;-68
2023/12/26 04:45:16;;;;;;;6.57;2.33;;;;;;;8.55;62.16;98420.75;4929679;28;102738;-69
2023/12/26 04:47:44;;;;;;;3.33;1.80;;;;;;;8.56;62.18;98411.84;4944982;28;103846;-69
2023/12/26 04:50:12;;;;;;;3.33;1.88;;;;;;;8.55;62.74;98418.91;4930681;28;104539;-70
2023/12/26 04:52:40;;;;;;;3.65;1.80;;;;;;;8.58;62.05;98420.41;4942374;28;103217;-69
2023/12/26 04:55:11;;;;;;;4.95;2.10;;;;;;;8.56;61.88;98422.41;4923516;28;102712;-69
2023/12/26 04:57:39;;;;;;;2.42;1.60;;;;;;;8.56;62.04;98417.94;4927733;28;102720;-70
2023/12/26 05:00:10;;;;;;;3.88;1.95;;;;;;;8.60;61.88;98423.72;5008651;27;104458;-69
2023/12/26 05:02:40;;;;;;;7.13;1.88;;;;;;;8.62;62.13;98419.13;4929012;27;103519;-69
2023/12/26 05:05:08;;;;;;;2.78;1.60;;;;;;;8.61;62.40;98420.09;4921715;27;103052;-69
2023/12/26 05:07:37;;;;;;;3.55;1.83;;;;;;;8.57;62.48;98419.59;4927193;27;102652;-69
2023/12/26 05:10:05;;;;;;;2.42;1.55;;;;;;;8.56;62.07;98430.31;4926169;28;104071;-69
2023/12/26 05:12:33;;;;;;;3.95;1.58;;;;;;;8.57;62.00;98429.34;4920545;27;104426;-69
2023/12/26 05:15:02;;;;;;;3.17;1.58;;;;;;;8.61;61.67;98426.19;4941717;27;102564;-70
2023/12/26 05:17:30;;;;;;;4.57;2.20;;;;;;;8.61;61.96;98420.09;4942358;28;103844;-70
2023/12/26 05:20:01;;;;;;;3.03;1.67;;;;;;;8.61;61.89;98414.81;4943698;28;103681;-70
2023/12/26 05:22:48;;;;;;;3.97;2.05;;;;;;;8.54;62.05;98413.81;4927593;27;103013;-70
2023/12/26 05:25:16;;;;;;;5.82;2.10;;;;;;;8.58;62.15;98399.28;4925092;28;103039;-69
2023/12/26 05:27:44;;;;;;;3.85;1.75;;;;;;;8.59;61.82;98409.72;4937701;28;103761;-70
2023/12/26 05:30:14;;;;;;;4.13;2.30;;;;;;;8.61;61.73;98417.47;4925364;27;104506;-70
2023/12/26 05:32:43;;;;;;;7.15;2.30;;;;;;;8.60;61.78;98413.16;4925974;28;105695;-70
2023/12/26 05:35:13;;;;;;;7.10;2.20;;;;;;;8.52;62.12;98410.50;4924633;28;102950;-70
2023/12/26 05:37:41;;;;;;;4.78;1.98;;;;;;;8.52;62.15;98426.34;4919093;28;104137;-70
2023/12/26 05:40:10;;;;;;;3.22;1.80;;;;;;;8.50;62.08;98430.94;4924474;28;103517;-70
2023/12/26 05:42:38;;;;;;;4.75;1.80;;;;;;;8.51;61.76;98432.63;4926332;28;103194;-70
2023/12/26 05:45:07;;;;;;;4.38;1.90;;;;;;;8.51;61.86;98435.25;4924815;28;102700;-70
2023/12/26 05:47:35;;;;;;;6.32;2.38;;;;;;;8.49;61.37;98430.13;4921659;28;104062;-70
2023/12/26 05:50:07;;;;;;;4.72;2.08;;;;;;;8.53;61.68;98436.75;4926946;28;105169;-69
2023/12/26 05:52:37;;;;;;;5.10;1.80;;;;;;;8.54;62.09;98443.69;4923610;27;105874;-70
2023/12/26 05:55:08;;;;;;;3.95;1.77;;;;;;;8.50;61.85;98439.69;4926076;28;102807;-69
2023/12/26 05:57:36;;;;;;;6.55;2.45;;;;;;;8.50;61.53;98444.16;4922841;28;102739;-70
2023/12/26 06:00:06;;;;;;;4.47;2.25;;;;;;;8.56;61.53;98454.06;4926993;27;104546;-69
2023/12/26 06:02:42;;;;;;;5.45;2.00;;;;;;;8.53;61.87;98449.09;4940620;27;103126;-69
2023/12/26 06:05:12;;;;;;;5.07;2.35;;;;;;;8.48;61.51;98439.03;4923293;28;102974;-70
2023/12/26 06:07:41;;;;;;;4.15;2.15;;;;;;;8.53;61.60;98443.81;4928420;28;102799;-69
2023/12/26 06:10:09;;;;;;;4.22;2.05;;;;;;;8.50;61.72;98438.88;4930308;28;103105;-69
2023/12/26 06:12:39;;;;;;;3.92;2.00;;;;;;;8.50;61.96;98449.44;4928477;28;106257;-69
2023/12/26 06:15:08;;;;;;;6.45;2.20;;;;;;;8.40;61.84;98442.44;4927285;28;102786;-70
2023/12/26 06:17:37;;;;;;;6.35;2.33;;;;;;;8.49;61.47;98443.34;4933912;28;102839;-69
2023/12/26 06:20:08;;;;;;;8.55;2.70;;;;;;;8.46;61.35;98448.91;4924890;28;104659;-69
2023/12/26 06:22:36;;;;;;;4.43;2.33;;;;;;;8.46;60.96;98448.91;4929899;28;106387;-69
2023/12/26 06:25:09;;;;;;;6.50;2.53;;;;;;;8.53;61.16;98452.59;4944903;27;103081;-69
2023/12/26 06:27:37;;;;;;;4.38;2.30;;;;;;;8.51;61.43;98445.81;4925390;27;102760;-69
2023/12/26 06:30:07;;;;;;;4.70;2.05;;;;;;;8.50;61.49;98465.25;4924634;27;104309;-69
2023/12/26 06:32:36;;;;;;;5.53;2.40;;;;;;;8.48;61.21;98459.34;4927124;28;106072;-69
2023/12/26 06:35:08;;;;;;;4.50;2.17;;;;;;;8.53;60.92;98459.66;4925082;28;102904;-69
2023/12/26 06:37:36;;;;;;;3.03;1.90;;;;;;;8.46;61.11;98456.84;4926462;28;102752;-69
2023/12/26 06:40:06;;;;;;;4.65;2.40;;;;;;;8.50;61.22;98460.00;4929883;28;104558;-70
2023/12/26 06:42:35;;;;;;;5.10;2.40;;;;;;;8.50;61.12;98460.00;5010988;27;104353;-69
2023/12/26 06:45:03;;;;;;;4.47;2.10;;;;;;;8.58;61.22;98460.00;4943713;27;102670;-68
2023/12/26 06:47:32;;;;;;;7.70;2.50;;;;;;;8.55;61.12;98460.34;4933998;27;104515;-68
2023/12/26 06:50:00;;;;;;;4.85;2.10;;;;;;;8.54;61.41;98456.03;4929222;28;103381;-69
2023/12/26 06:52:28;;;;;;;7.30;2.55;;;;;;;8.50;61.01;98462.63;4919122;28;105835;-69
2023/12/26 06:54:57;;;;;;;13.38;2.72;;;;;;;8.51;61.29;98451.09;4953583;27;103071;-68
2023/12/26 06:57:26;;;;;;;5.38;2.13;;;;;;;8.52;61.51;98450.09;4935260;27;104071;-69
2023/12/26 06:59:55;;;;;;;6.53;2.42;;;;;;;8.47;61.55;98463.78;4928700;27;104196;-69
2023/12/26 07:02:24;;;;;;;5.53;2.50;;;;;;;8.49;61.87;98472.38;4943437;27;103136;-69
2023/12/26 07:04:52;;;;;;;3.70;2.17;;;;;;;8.53;61.38;98478.13;4929453;28;102728;-69
2023/12/26 07:07:20;;;;;;;6.07;2.53;;;;;;;8.49;61.59;98490.00;4932782;27;104092;-69
2023/12/26 07:09:48;;;;;;;10.07;2.65;;;;;;;8.48;61.41;98491.00;4931790;28;104419;-69
2023/12/26 07:12:16;;;;;;;6.45;2.50;;;;;;;8.45;61.75;98485.06;4936159;27;103643;-69
2023/12/26 07:14:45;;;;;;;4.50;2.00;;;;;;;8.45;61.45;98490.34;4946428;28;103868;-69
2023/12/26 07:17:14;;;;;;;8.18;2.72;;;;;;;8.46;61.61;98496.44;4941775;28;102715;-69
2023/12/26 07:19:42;;;;;;;3.15;2.00;;;;;;;8.50;61.61;98500.41;4936884;27;104168;-69
2023/12/26 07:22:10;;;;;;;7.40;2.60;;;;;;;8.51;61.94;98504.69;4947492;27;103120;-69
2023/12/26 07:24:38;;;;;;;5.35;2.63;;;;;;;8.43;62.14;98508.09;4941467;28;102661;-69
2023/12/26 07:27:06;;;;;;;4.90;2.20;;;;;;;8.49;61.87;98508.47;4930948;28;104126;-69
2023/12/26 07:29:35;;;;;;;6.82;2.53;;;;;;;8.52;62.12;98511.63;4935618;27;103321;-69
2023/12/26 07:32:03;;;;;;;4.97;2.40;;;;;;;8.44;61.59;98524.78;4945115;28;103155;-69
2023/12/26 07:34:32;;;;;;;4.35;2.58;;;;;;;8.50;61.70;98528.63;4941244;27;102718;-69
2023/12/26 07:37:00;;;;;;;4.88;2.33;;;;;;;8.49;62.04;98537.50;5013531;27;103145;-69
2023/12/26 07:39:28;;;;;;;4.60;2.25;;;;;;;8.54;61.68;98532.59;4941061;27;103481;-69
2023/12/26 07:42:00;;;;;;;8.75;2.42;;;;;;;8.49;61.99;98537.50;4937911;27;103196;-69
2023/12/26 07:44:31;;;;;;;5.57;2.63;;;;;;;8.49;62.17;98542.78;4923681;28;102607;-69
2023/12/26 07:46:59;;;;;;;4.35;2.30;;;;;;;8.55;61.87;98547.44;4940495;27;103832;-69
2023/12/26 07:49:27;;;;;;;7.65;2.60;;;;;;;8.53;62.07;98559.97;4946671;27;103037;-67
2023/12/26 07:51:57;;;;;;;4.93;2.15;;;;;;;8.59;61.61;98559.34;4924199;28;103228;-69
2023/12/26 07:54:25;;;;;;;6.68;2.40;;;;;;;8.58;62.04;98561.16;4948316;27;102750;-69
2023/12/26 07:56:53;;;;;;;6.22;2.75;;;;;;;8.57;61.50;98562.13;4953241;27;104330;-68
2023/12/26 07:59:21;;;;;;;5.50;2.13;;;;;;;8.59;61.62;98573.38;4939924;28;103233;-69
2023/12/26 08:01:49;;;;;;;5.07;2.30;;;;;;;8.61;61.54;98562.66;4939349;27;103194;-66
2023/12/26 08:04:17;;;;;;;4.00;1.75;;;;;;;8.62;61.72;98570.41;4927150;28;102691;-66
2023/12/26 08:06:46;;;;;;;3.30;1.80;;;;;;;8.64;61.88;98572.88;4942789;28;102645;-60
2023/12/26 08:09:15;;;;;;;4.50;2.13;;;;;;;8.69;61.87;98578.53;4944397;27;103847;-67
2023/12/26 08:11:43;;;;;;;4.82;2.28;;;;;;;8.73;61.77;98573.75;4928968;27;103287;-67
2023/12/26 08:14:17;;;;;;;4.10;2.30;;;;;;;8.75;61.73;98564.69;4943466;27;103027;-67
2023/12/26 08:16:45;;;;;;;;;;;;;;;8.71;62.24;98583.63;4948567;27;103968;-68
2023/12/26 08:19:13;;;;;;;5.65;1.90;;;;;;;8.77;61.63;98585.66;4947049;27;103256;-68
2023/12/26 08:21:44;;;;;;;3.70;1.98;;;;;;;8.79;61.77;98584.50;4928971;27;103159;-67
2023/12/26 08:24:12;;;;;;;4.95;2.20;;;;;;;8.83;61.88;98586.81;4942810;27;103851;-67
2023/12/26 08:26:41;;;;;;;3.85;1.65;;;;;;;8.90;61.77;98583.38;4927935;28;104179;-67
2023/12/26 08:29:12;;;;;;;5.05;2.00;;;;;;;8.90;61.42;98579.94;4943349;27;104071;-67
2023/12/26 08:31:40;;;;;;;5.60;2.13;;;;;;;8.94;61.13;98590.00;4929065;28;103388;-67
2023/12/26 08:34:08;;;;;;;5.18;2.20;;;;;;;8.95;61.34;98586.38;4933360;28;102739;-67
2023/12/26 08:36:36;;;;;;;4.03;1.85;;;;;;;8.99;61.03;98589.53;4939690;27;104782;-67
2023/12/26 08:39:04;;;;;;;4.88;2.15;;;;;;;8.91;61.56;98592.16;4939839;27;103173;-67
2023/12/26 08:41:32;;;;;;;4.80;2.13;;;;;;;8.97;61.57;98594.13;4931813;27;103380;-67
2023/12/26 08:44:04;;;;;;;4.20;2.03;;;;;;;9.02;61.04;98607.69;4942045;27;103248;-67
2023/12/26 08:46:32;;;;;;;4.22;2.33;;;;;;;9.11;61.05;98600.63;4941531;28;104456;-68
2023/12/26 08:49:02;;;;;;;4.72;2.35;;;;;;;9.06;60.85;98611.66;4930198;28;104162;-67
2023/12/26 08:51:31;;;;;;;7.00;2.33;;;;;;;9.13;60.83;98614.47;4945197;27;103299;-67
2023/12/26 08:53:59;;;;;;;6.72;2.38;;;;;;;8.99;61.14;98618.59;4932583;28;102665;-67
2023/12/26 08:56:27;;;;;;;5.50;2.28;;;;;;;9.09;61.19;98614.00;4942044;28;102841;-67
2023/12/26 08:58:55;;;;;;;4.20;1.83;;;;;;;9.11;60.74;98617.28;4937696;28;103238;-67
2023/12/26 09:01:24;;;;;;;7.03;3.03;;;;;;;9.16;60.69;98621.25;4928018;28;103669;-67
2023/12/26 09:03:52;;;;;;;4.28;1.90;;;;;;;9.19;61.00;98624.41;4947503;27;102676;-68
2023/12/26 09:06:20;;;;;;;5.93;2.28;;;;;;;9.11;60.98;98633.13;4939770;28;102631;-68
2023/12/26 09:08:48;;;;;;;4.32;2.20;;;;;;;9.22;60.42;98639.13;4923527;28;104321;-68
2023/12/26 09:11:16;;;;;;;6.38;2.75;;;;;;;9.27;60.69;98647.41;4946483;27;103193;-67
2023/12/26 09:13:44;;;;;;;6.00;2.55;;;;;;;9.29;61.01;98653.38;4921417;28;102594;-68
2023/12/26 09:16:13;;;;;;;6.13;2.20;;;;;;;9.24;60.80;98653.03;4927728;28;102623;-68
2023/12/26 09:18:43;;;;;;;6.32;2.17;;;;;;;9.28;60.84;98657.81;4942632;28;103246;-68
2023/12/26 09:21:11;;;;;;;4.38;2.05;;;;;;;9.29;60.53;98648.91;4954920;27;103201;-68
2023/12/26 09:23:39;;;;;;;4.55;2.00;;;;;;;9.31;61.01;98658.47;4944955;28;102955;-68
2023/12/26 09:26:07;;;;;;;6.63;2.65;;;;;;;9.39;60.46;98666.44;4940859;28;102606;-67
2023/12/26 09:28:36;;;;;;;3.95;1.95;;;;;;;9.37;61.05;98657.84;4956489;27;103828;-67
2023/12/26 09:31:04;;;;;;;4.88;1.92;;;;;;;9.32;60.98;98654.84;4944434;27;103847;-68
2023/12/26 09:33:32;;;;;;;5.55;2.40;;;;;;;9.23;61.13;98668.03;4942938;28;102556;-67
2023/12/26 09:36:02;;;;;;;5.97;2.83;;;;;;;9.33;61.30;98678.47;4943809;27;102906;-68
2023/12/26 09:38:30;;;;;;;5.57;2.10;;;;;;;9.29;61.12;98677.97;4945414;28;103210;-68
2023/12/26 09:40:58;;;;;;;3.95;1.98;;;;;;;9.40;61.68;98678.66;4946142;27;103230;-69
2023/12/26 09:43:28;;;;;;;6.88;2.13;;;;;;;9.50;60.83;98686.44;4944507;27;103015;-69
2023/12/26 09:45:56;;;;;;;5.00;1.92;;;;;;;9.55;61.27;98681.50;4929781;28;104371;-69
2023/12/26 09:48:25;;;;;;;4.07;2.08;;;;;;;9.60;60.90;98676.56;4931869;28;104625;-69
2023/12/26 09:50:55;;;;;;;5.35;2.47;;;;;;;9.56;61.08;98688.44;4946625;27;103285;-70
2023/12/26 09:53:29;;;;;;;3.67;1.77;;;;;;;9.57;60.93;98696.22;4949347;27;102611;-70
2023/12/26 09:55:58;;;;;;;3.85;2.13;;;;;;;9.55;60.90;98702.66;4931939;27;102747;-70
2023/12/26 09:58:27;;;;;;;6.05;2.50;;;;;;;9.51;61.31;98706.59;4948874;27;103806;-70
2023/12/26 10:00:57;;;;;;;5.82;2.25;;;;;;;9.57;60.99;98716.53;4943317;28;103195;-70
2023/12/26 10:03:28;;;;;;;5.13;1.90;;;;;;;9.63;61.22;98722.00;4935795;28;102705;-67
2023/12/26 10:05:57;;;;;;;3.78;1.90;;;;;;;9.63;60.76;98718.56;4930160;27;103830;-67
2023/12/26 10:08:27;;;;;;;3.80;1.88;;;;;;;9.70;61.03;98727.47;4942259;28;104180;-69
2023/12/26 10:10:56;;;;;;;2.97;1.60;;;;;;;9.76;60.68;98726.84;4927227;28;104169;-68
2023/12/26 10:13:24;;;;;;;3.92;1.60;;;;;;;9.80;60.92;98727.34;4933231;28;103247;-67
2023/12/26 10:15:54;;;;;;;5.13;2.33;;;;;;;9.86;60.59;98726.69;4928344;28;103033;-67
2023/12/26 10:18:26;;;;;;;3.08;1.80;;;;;;;9.89;60.82;98720.25;4945714;27;103510;-67
2023/12/26 10:20:55;;;;;;;3.83;1.90;;;;;;;9.88;60.81;98718.59;4941280;27;103285;-68
2023/12/26 10:23:23;;;;;;;3.25;1.90;;;;;;;9.87;60.76;98716.94;4944834;27;102882;-67
2023/12/26 10:25:53;;;;;;;5.25;2.05;;;;;;;9.81;60.73;98707.00;4946591;28;104551;-68
2023/12/26 10:28:21;;;;;;;3.35;1.70;;;;;;;9.89;60.64;98705.22;4944876;28;103330;-68
2023/12/26 10:30:56;;;;;;;3.75;1.90;;;;;;;9.90;60.84;98706.03;4943670;28;103107;-67
2023/12/26 10:33:43;;;;;;;3.27;1.90;;;;;;;9.82;61.05;98700.72;4941022;27;103446;-69
2023/12/26 10:36:12;;;;;;;4.05;1.90;;;;;;;9.82;61.18;98695.44;4924424;28;102734;-70
2023/12/26 10:38:41;;;;;;;3.22;1.70;;;;;;;9.85;60.89;98693.31;4940728;27;104202;-70
2023/12/26 10:41:16;;;;;;;3.15;1.70;;;;;;;9.86;60.91;98699.41;4941229;27;103203;-69
2023/12/26 10:43:49;;;;;;;4.28;1.80;;;;;;;9.78;60.94;98698.41;4939465;27;102557;-70
2023/12/26 10:46:18;;;;;;;2.95;1.60;;;;;;;9.86;61.14;98704.69;4942826;27;103794;-69
2023/12/26 10:48:50;;;;;;;2.65;1.75;;;;;;;9.91;61.14;98715.63;4944348;27;103222;-69
2023/12/26 10:51:25;;;;;;;2.45;1.50;;;;;;;9.89;61.03;98722.88;4941690;27;103390;-69
2023/12/26 10:53:56;;;;;;;;;;;;;;;9.87;61.66;98722.25;4944537;28;102935;-69
2023/12/26 10:56:29;;;;;;;5.88;2.22;;;;;;;9.90;61.06;98725.41;4931858;27;104902;-69
2023/12/26 10:58:58;;;;;;;2.65;1.45;;;;;;;9.92;60.75;98728.69;4931735;27;103306;-70
2023/12/26 13:52:16;;;;;;;2.28;1.35;;;;;;;10.16;63.35;98795.88;4946540;27;103757;-70
2023/12/26 13:55:21;;;;;;;2.05;1.30;;;;;;;10.21;63.56;98798.03;4951177;27;104043;-67
2023/12/26 13:58:27;;;;;;;3.40;1.63;;;;;;;10.25;63.57;98788.78;4942874;28;103193;-67
2023/12/26 14:01:32;;;;;;;2.25;1.48;;;;;;;10.20;63.90;98783.13;4954158;27;102924;-68
2023/12/26 14:04:03;;;;;;;3.83;1.50;;;;;;;10.25;63.67;98783.47;5012849;27;103069;-70
2023/12/26 14:06:34;;;;;;;2.78;1.40;;;;;;;10.04;64.57;98786.59;4928901;28;104615;-67
2023/12/26 14:09:04;;;;;;;2.95;1.42;;;;;;;10.18;64.11;98790.41;4953540;27;104199;-67
2023/12/26 14:11:35;;;;;;;1.50;1.15;;;;;;;10.22;63.79;98797.88;4946440;27;102736;-67
2023/12/26 14:14:02;;;;;;;2.90;1.30;;;;;;;10.22;63.93;98795.22;4945679;27;104261;-68
2023/12/26 14:16:33;;;;;;;2.60;1.02;;;;;;;10.15;64.14;98804.78;4930835;28;103680;-69
2023/12/26 14:19:03;;;;;;;1.50;1.08;;;;;;;10.17;64.00;98807.31;4950114;28;103271;-69
2023/12/26 14:22:10;;;;;;;2.80;1.33;;;;;;;10.16;63.71;98813.56;4971102;27;103346;-69
2023/12/26 14:25:15;;;;;;;2.40;1.25;;;;;;;10.11;64.48;98814.03;4946350;27;103976;-69
2023/12/26 14:28:21;;;;;;;1.02;0.85;;;;;;;10.11;64.30;98814.03;4948057;28;103292;-69
2023/12/26 14:31:28;;;;;;;1.85;1.20;;;;;;;10.13;64.02;98826.13;4935539;28;104508;-69
2023/12/26 14:34:34;;;;;;;1.48;1.10;;;;;;;10.13;64.31;98830.59;4942592;28;102767;-69
2023/12/26 14:37:39;;;;;;;1.00;0.90;;;;;;;10.14;64.41;98829.63;4946649;27;102944;-69
2023/12/26 14:40:48;;;;;;;2.95;1.30;;;;;;;9.96;64.83;98837.66;4971243;27;103107;-69